sensor_id;sensor_type;location;lat;lon;timestamp;temperature;humidity
42187;DHT22;27858;51.414;0.018;2023-02-28T00:01:13;4.40;36.90
42187;DHT22;27858;51.414;0.018;2023-02-28T00:03:40;4.40;42.70
42187;DHT22;27858;51.414;0.018;2023-02-28T00:06:08;4.30;54.80
42187;DHT22;27858;51.414;0.018;2023-02-28T00:08:36;4.30;59.00
42187;DHT22;27858;51.414;0.018;2023-02-28T00:11:06;4.30;65.00
42187;DHT22;27858;51.414;0.018;2023-02-28T00:13:35;4.30;77.80
42187;DHT22;27858;51.414;0.018;2023-02-28T00:16:14;4.20;88.70
42187;DHT22;27858;51.414;0.018;2023-02-28T00:18:41;4.20;93.30
42187;DHT22;27858;51.414;0.018;2023-02-28T00:21:08;4.20;97.30
42187;DHT22;27858;51.414;0.018;2023-02-28T00:23:36;4.20;99.30
42187;DHT22;27858;51.414;0.018;2023-02-28T00:26:03;4.10;99.90
42187;DHT22;27858;51.414;0.018;2023-02-28T00:28:30;4.20;99.90
42187;DHT22;27858;51.414;0.018;2023-02-28T00:30:57;4.10;99.90
42187;DHT22;27858;51.414;0.018;2023-02-28T00:33:24;4.10;99.90
42187;DHT22;27858;51.414;0.018;2023-02-28T00:35:51;4.10;99.90
42187;DHT22;27858;51.414;0.018;2023-02-28T00:38:18;4.00;99.90
42187;DHT22;27858;51.414;0.018;2023-02-28T00:40:45;4.00;99.90
42187;DHT22;27858;51.414;0.018;2023-02-28T00:43:13;4.00;99.90
42187;DHT22;27858;51.414;0.018;2023-02-28T00:45:39;4.00;99.90
42187;DHT22;27858;51.414;0.018;2023-02-28T00:48:06;4.00;99.90
42187;DHT22;27858;51.414;0.018;2023-02-28T00:50:33;4.00;99.90
42187;DHT22;27858;51.414;0.018;2023-02-28T00:53:00;4.00;99.90
42187;DHT22;27858;51.414;0.018;2023-02-28T00:55:27;3.90;99.90
42187;DHT22;27858;51.414;0.018;2023-02-28T00:57:53;3.90;99.90
42187;DHT22;27858;51.414;0.018;2023-02-28T05:00:39;2.70;99.90
42187;DHT22;27858;51.414;0.018;2023-02-28T05:03:06;2.60;99.90
42187;DHT22;27858;51.414;0.018;2023-02-28T05:05:33;2.50;99.90
42187;DHT22;27858;51.414;0.018;2023-02-28T05:08:00;2.60;99.90
42187;DHT22;27858;51.414;0.018;2023-02-28T05:10:26;2.50;99.90
42187;DHT22;27858;51.414;0.018;2023-02-28T05:12:53;2.60;99.90
42187;DHT22;27858;51.414;0.018;2023-02-28T05:15:20;2.60;99.90
42187;DHT22;27858;51.414;0.018;2023-02-28T05:17:47;2.70;99.90
42187;DHT22;27858;51.414;0.018;2023-02-28T05:20:14;2.40;99.90
42187;DHT22;27858;51.414;0.018;2023-02-28T05:22:42;2.40;99.90
42187;DHT22;27858;51.414;0.018;2023-02-28T05:25:19;2.40;99.90
42187;DHT22;27858;51.414;0.018;2023-02-28T05:27:46;2.40;99.90
42187;DHT22;27858;51.414;0.018;2023-02-28T05:30:13;2.40;99.90
42187;DHT22;27858;51.414;0.018;2023-02-28T05:32:41;2.60;99.90
42187;DHT22;27858;51.414;0.018;2023-02-28T05:35:12;2.60;99.90
42187;DHT22;27858;51.414;0.018;2023-02-28T05:37:39;2.40;99.90
42187;DHT22;27858;51.414;0.018;2023-02-28T05:40:06;2.50;99.90
42187;DHT22;27858;51.414;0.018;2023-02-28T05:42:36;2.50;99.90
42187;DHT22;27858;51.414;0.018;2023-02-28T05:45:04;2.50;99.90
42187;DHT22;27858;51.414;0.018;2023-02-28T05:47:31;2.30;99.90
42187;DHT22;27858;51.414;0.018;2023-02-28T05:49:58;2.50;99.90
42187;DHT22;27858;51.414;0.018;2023-02-28T05:52:25;2.60;99.90
42187;DHT22;27858;51.414;0.018;2023-02-28T05:54:51;2.50;99.90
42187;DHT22;27858;51.414;0.018;2023-02-28T05:57:18;2.30;99.90
42187;DHT22;27858;51.414;0.018;2023-02-28T05:59:50;2.40;99.90
42187;DHT22;27858;51.414;0.018;2023-02-28T06:02:17;2.40;99.90
42187;DHT22;27858;51.414;0.018;2023-02-28T06:04:45;2.50;99.90
42187;DHT22;27858;51.414;0.018;2023-02-28T06:07:12;2.50;99.90
42187;DHT22;27858;51.414;0.018;2023-02-28T06:09:39;2.60;99.90
42187;DHT22;27858;51.414;0.018;2023-02-28T06:12:07;2.70;99.90
42187;DHT22;27858;51.414;0.018;2023-02-28T06:14:35;2.70;99.90
42187;DHT22;27858;51.414;0.018;2023-02-28T06:17:03;2.60;99.90
42187;DHT22;27858;51.414;0.018;2023-02-28T06:19:30;2.70;99.90
42187;DHT22;27858;51.414;0.018;2023-02-28T06:21:57;2.60;99.90
42187;DHT22;27858;51.414;0.018;2023-02-28T06:24:25;2.70;99.90
42187;DHT22;27858;51.414;0.018;2023-02-28T06:26:54;2.70;99.90
42187;DHT22;27858;51.414;0.018;2023-02-28T06:29:21;2.70;99.90
42187;DHT22;27858;51.414;0.018;2023-02-28T06:31:48;2.70;99.90
42187;DHT22;27858;51.414;0.018;2023-02-28T06:34:15;2.90;99.90
42187;DHT22;27858;51.414;0.018;2023-02-28T06:36:43;2.70;99.90
42187;DHT22;27858;51.414;0.018;2023-02-28T06:39:09;2.90;99.90
42187;DHT22;27858;51.414;0.018;2023-02-28T06:41:37;2.90;99.90
42187;DHT22;27858;51.414;0.018;2023-02-28T06:44:20;2.80;99.90
42187;DHT22;27858;51.414;0.018;2023-02-28T06:46:46;2.80;99.90
42187;DHT22;27858;51.414;0.018;2023-02-28T06:49:13;3.00;99.90
42187;DHT22;27858;51.414;0.018;2023-02-28T06:51:42;3.10;99.90
42187;DHT22;27858;51.414;0.018;2023-02-28T06:54:12;3.00;99.90
42187;DHT22;27858;51.414;0.018;2023-02-28T06:56:39;2.90;99.90
42187;DHT22;27858;51.414;0.018;2023-02-28T06:59:06;2.90;99.90
42187;DHT22;27858;51.414;0.018;2023-02-28T07:01:33;3.20;99.90
42187;DHT22;27858;51.414;0.018;2023-02-28T07:04:00;3.00;99.90
42187;DHT22;27858;51.414;0.018;2023-02-28T07:06:28;3.10;99.90
42187;DHT22;27858;51.414;0.018;2023-02-28T07:08:55;3.00;99.90
42187;DHT22;27858;51.414;0.018;2023-02-28T07:11:24;2.90;99.90
42187;DHT22;27858;51.414;0.018;2023-02-28T07:13:55;3.20;99.90
42187;DHT22;27858;51.414;0.018;2023-02-28T07:16:24;3.20;99.90
42187;DHT22;27858;51.414;0.018;2023-02-28T07:18:54;3.10;99.90
42187;DHT22;27858;51.414;0.018;2023-02-28T07:21:23;3.00;99.90
42187;DHT22;27858;51.414;0.018;2023-02-28T07:23:50;3.10;99.90
42187;DHT22;27858;51.414;0.018;2023-02-28T07:26:18;3.20;99.90
42187;DHT22;27858;51.414;0.018;2023-02-28T07:28:46;3.10;99.90
42187;DHT22;27858;51.414;0.018;2023-02-28T07:31:14;3.20;99.90
42187;DHT22;27858;51.414;0.018;2023-02-28T07:33:42;3.40;99.90
42187;DHT22;27858;51.414;0.018;2023-02-28T07:36:14;3.20;99.90
42187;DHT22;27858;51.414;0.018;2023-02-28T07:38:43;3.50;99.90
42187;DHT22;27858;51.414;0.018;2023-02-28T07:41:15;3.60;99.90
42187;DHT22;27858;51.414;0.018;2023-02-28T07:43:42;3.40;99.90
42187;DHT22;27858;51.414;0.018;2023-02-28T07:46:11;3.70;99.90
42187;DHT22;27858;51.414;0.018;2023-02-28T07:48:38;3.60;99.90
42187;DHT22;27858;51.414;0.018;2023-02-28T07:51:05;3.70;99.90
42187;DHT22;27858;51.414;0.018;2023-02-28T07:53:32;3.80;99.90
42187;DHT22;27858;51.414;0.018;2023-02-28T07:56:00;3.90;99.90
42187;DHT22;27858;51.414;0.018;2023-02-28T07:58:28;4.00;99.90
42187;DHT22;27858;51.414;0.018;2023-02-28T08:00:56;3.90;99.90
42187;DHT22;27858;51.414;0.018;2023-02-28T08:03:24;4.10;99.90
42187;DHT22;27858;51.414;0.018;2023-02-28T08:05:51;4.00;99.90
42187;DHT22;27858;51.414;0.018;2023-02-28T08:08:19;4.00;99.90
42187;DHT22;27858;51.414;0.018;2023-02-28T08:10:45;4.30;99.90
42187;DHT22;27858;51.414;0.018;2023-02-28T08:13:12;4.10;99.90
42187;DHT22;27858;51.414;0.018;2023-02-28T08:15:41;4.40;99.90
42187;DHT22;27858;51.414;0.018;2023-02-28T08:18:09;4.40;99.90
42187;DHT22;27858;51.414;0.018;2023-02-28T08:20:36;4.50;99.90
42187;DHT22;27858;51.414;0.018;2023-02-28T08:23:03;4.40;99.90
42187;DHT22;27858;51.414;0.018;2023-02-28T08:25:30;4.60;99.90
42187;DHT22;27858;51.414;0.018;2023-02-28T08:27:56;4.50;99.90
42187;DHT22;27858;51.414;0.018;2023-02-28T08:30:23;4.60;99.90
42187;DHT22;27858;51.414;0.018;2023-02-28T08:32:50;4.70;99.90
42187;DHT22;27858;51.414;0.018;2023-02-28T08:35:17;4.70;99.90
42187;DHT22;27858;51.414;0.018;2023-02-28T08:37:44;4.60;99.90
42187;DHT22;27858;51.414;0.018;2023-02-28T08:40:13;4.70;99.90
42187;DHT22;27858;51.414;0.018;2023-02-28T08:42:45;4.90;99.90
42187;DHT22;27858;51.414;0.018;2023-02-28T08:45:13;4.80;99.90
42187;DHT22;27858;51.414;0.018;2023-02-28T08:47:40;5.00;99.90
42187;DHT22;27858;51.414;0.018;2023-02-28T08:50:08;5.00;99.90
42187;DHT22;27858;51.414;0.018;2023-02-28T08:52:35;5.10;99.90
42187;DHT22;27858;51.414;0.018;2023-02-28T08:55:02;5.10;99.90
42187;DHT22;27858;51.414;0.018;2023-02-28T08:57:28;5.20;99.90
42187;DHT22;27858;51.414;0.018;2023-02-28T08:59:55;5.20;99.90
42187;DHT22;27858;51.414;0.018;2023-02-28T09:02:22;5.40;99.90
42187;DHT22;27858;51.414;0.018;2023-02-28T09:04:49;5.50;99.90
42187;DHT22;27858;51.414;0.018;2023-02-28T09:07:16;5.40;99.90
42187;DHT22;27858;51.414;0.018;2023-02-28T09:09:42;5.50;99.90
42187;DHT22;27858;51.414;0.018;2023-02-28T09:12:21;5.50;99.90
42187;DHT22;27858;51.414;0.018;2023-02-28T09:14:51;5.60;99.90
42187;DHT22;27858;51.414;0.018;2023-02-28T09:17:18;5.60;99.90
42187;DHT22;27858;51.414;0.018;2023-02-28T09:19:48;5.70;99.90
42187;DHT22;27858;51.414;0.018;2023-02-28T09:22:15;5.80;99.90
42187;DHT22;27858;51.414;0.018;2023-02-28T09:24:42;5.90;99.90
42187;DHT22;27858;51.414;0.018;2023-02-28T09:27:11;6.10;99.90
42187;DHT22;27858;51.414;0.018;2023-02-28T09:29:38;6.10;99.90
42187;DHT22;27858;51.414;0.018;2023-02-28T09:32:05;6.10;99.90
42187;DHT22;27858;51.414;0.018;2023-02-28T09:34:35;6.00;99.90
42187;DHT22;27858;51.414;0.018;2023-02-28T09:37:06;6.20;99.90
42187;DHT22;27858;51.414;0.018;2023-02-28T09:39:35;6.10;99.90
42187;DHT22;27858;51.414;0.018;2023-02-28T09:42:03;6.20;99.90
42187;DHT22;27858;51.414;0.018;2023-02-28T09:44:37;6.40;99.90
42187;DHT22;27858;51.414;0.018;2023-02-28T09:47:48;6.40;99.90
42187;DHT22;27858;51.414;0.018;2023-02-28T09:52:46;6.50;99.90
42187;DHT22;27858;51.414;0.018;2023-02-28T09:55:28;6.40;99.90
42187;DHT22;27858;51.414;0.018;2023-02-28T09:58:04;6.50;99.90
42187;DHT22;27858;51.414;0.018;2023-02-28T10:00:37;6.50;99.90
42187;DHT22;27858;51.414;0.018;2023-02-28T10:06:13;6.50;99.90
42187;DHT22;27858;51.414;0.018;2023-02-28T10:09:04;6.50;99.90
42187;DHT22;27858;51.414;0.018;2023-02-28T10:11:33;6.60;99.90
42187;DHT22;27858;51.414;0.018;2023-02-28T10:14:14;6.60;99.90
42187;DHT22;27858;51.414;0.018;2023-02-28T10:19:24;6.60;99.90
42187;DHT22;27858;51.414;0.018;2023-02-28T10:22:01;6.60;99.90
42187;DHT22;27858;51.414;0.018;2023-02-28T10:24:37;6.60;99.90
42187;DHT22;27858;51.414;0.018;2023-02-28T10:27:15;6.70;99.90
42187;DHT22;27858;51.414;0.018;2023-02-28T10:29:52;6.70;99.90
42187;DHT22;27858;51.414;0.018;2023-02-28T10:32:25;6.70;99.90
42187;DHT22;27858;51.414;0.018;2023-02-28T10:37:55;6.80;99.90
42187;DHT22;27858;51.414;0.018;2023-02-28T10:43:04;6.80;99.90
42187;DHT22;27858;51.414;0.018;2023-02-28T10:45:35;7.00;99.90
42187;DHT22;27858;51.414;0.018;2023-02-28T10:49:01;6.90;99.90
42187;DHT22;27858;51.414;0.018;2023-02-28T10:50:54;7.00;99.90
42187;DHT22;27858;51.414;0.018;2023-02-28T10:56:03;7.10;99.90
42187;DHT22;27858;51.414;0.018;2023-02-28T10:58:56;7.00;99.90
42187;DHT22;27858;51.414;0.018;2023-02-28T11:01:42;7.20;99.90
42187;DHT22;27858;51.414;0.018;2023-02-28T11:04:19;7.20;99.90
42187;DHT22;27858;51.414;0.018;2023-02-28T11:06:57;7.20;99.90
42187;DHT22;27858;51.414;0.018;2023-02-28T11:09:34;7.20;99.90
42187;DHT22;27858;51.414;0.018;2023-02-28T11:12:05;7.20;99.90
42187;DHT22;27858;51.414;0.018;2023-02-28T11:14:56;7.20;99.90
42187;DHT22;27858;51.414;0.018;2023-02-28T11:17:26;7.10;99.90
42187;DHT22;27858;51.414;0.018;2023-02-28T11:19:57;7.10;99.90
42187;DHT22;27858;51.414;0.018;2023-02-28T11:22:27;7.20;99.90
42187;DHT22;27858;51.414;0.018;2023-02-28T11:24:57;7.30;99.90
42187;DHT22;27858;51.414;0.018;2023-02-28T11:29:59;7.20;99.90
42187;DHT22;27858;51.414;0.018;2023-02-28T11:32:28;7.20;99.90
42187;DHT22;27858;51.414;0.018;2023-02-28T11:37:38;7.10;99.90
42187;DHT22;27858;51.414;0.018;2023-02-28T11:40:13;7.20;99.90
42187;DHT22;27858;51.414;0.018;2023-02-28T11:42:56;7.30;99.90
42187;DHT22;27858;51.414;0.018;2023-02-28T11:48:16;7.30;99.90
42187;DHT22;27858;51.414;0.018;2023-02-28T11:51:10;7.20;99.90
42187;DHT22;27858;51.414;0.018;2023-02-28T11:56:43;7.20;99.90
42187;DHT22;27858;51.414;0.018;2023-02-28T11:59:19;7.30;99.90
42187;DHT22;27858;51.414;0.018;2023-02-28T12:02:06;7.30;99.90
42187;DHT22;27858;51.414;0.018;2023-02-28T12:21:20;7.50;99.90
42187;DHT22;27858;51.414;0.018;2023-02-28T12:23:55;7.60;99.90
42187;DHT22;27858;51.414;0.018;2023-02-28T12:26:38;7.70;99.90
42187;DHT22;27858;51.414;0.018;2023-02-28T12:31:49;7.50;99.90
42187;DHT22;27858;51.414;0.018;2023-02-28T12:34:22;7.50;99.90
42187;DHT22;27858;51.414;0.018;2023-02-28T12:36:55;7.50;99.90
42187;DHT22;27858;51.414;0.018;2023-02-28T12:39:28;7.60;99.90
42187;DHT22;27858;51.414;0.018;2023-02-28T12:44:56;7.60;99.90
42187;DHT22;27858;51.414;0.018;2023-02-28T12:47:24;7.70;99.90
42187;DHT22;27858;51.414;0.018;2023-02-28T12:49:58;7.70;99.90
42187;DHT22;27858;51.414;0.018;2023-02-28T12:55:13;7.60;99.90
42187;DHT22;27858;51.414;0.018;2023-02-28T12:58:01;7.60;99.90
42187;DHT22;27858;51.414;0.018;2023-02-28T13:00:38;7.60;99.90
42187;DHT22;27858;51.414;0.018;2023-02-28T13:03:34;7.70;99.90
42187;DHT22;27858;51.414;0.018;2023-02-28T13:09:02;7.60;99.90
42187;DHT22;27858;51.414;0.018;2023-02-28T13:11:45;7.70;99.90
42187;DHT22;27858;51.414;0.018;2023-02-28T13:17:01;7.60;99.90
42187;DHT22;27858;51.414;0.018;2023-02-28T13:19:32;7.70;99.90
42187;DHT22;27858;51.414;0.018;2023-02-28T13:22:00;7.70;99.90
42187;DHT22;27858;51.414;0.018;2023-02-28T13:29:43;7.60;99.90
42187;DHT22;27858;51.414;0.018;2023-02-28T13:37:36;7.70;99.90
42187;DHT22;27858;51.414;0.018;2023-02-28T13:40:31;7.60;99.90
42187;DHT22;27858;51.414;0.018;2023-02-28T13:43:08;7.70;99.90
42187;DHT22;27858;51.414;0.018;2023-02-28T13:45:35;7.60;99.90
42187;DHT22;27858;51.414;0.018;2023-02-28T13:48:17;7.60;99.90
42187;DHT22;27858;51.414;0.018;2023-02-28T13:50:45;7.70;99.90
42187;DHT22;27858;51.414;0.018;2023-02-28T14:07:20;7.70;99.90
42187;DHT22;27858;51.414;0.018;2023-02-28T14:09:56;7.80;99.90
42187;DHT22;27858;51.414;0.018;2023-02-28T14:18:02;7.80;99.90
42187;DHT22;27858;51.414;0.018;2023-02-28T14:20:32;7.80;99.90
42187;DHT22;27858;51.414;0.018;2023-02-28T14:23:39;7.60;99.90
42187;DHT22;27858;51.414;0.018;2023-02-28T14:26:13;7.80;99.90
42187;DHT22;27858;51.414;0.018;2023-02-28T14:31:29;7.60;99.90
42187;DHT22;27858;51.414;0.018;2023-02-28T14:36:48;7.80;99.90
42187;DHT22;27858;51.414;0.018;2023-02-28T14:39:22;7.80;99.90
42187;DHT22;27858;51.414;0.018;2023-02-28T14:41:50;7.70;99.90
42187;DHT22;27858;51.414;0.018;2023-02-28T14:44:25;7.70;99.90
42187;DHT22;27858;51.414;0.018;2023-02-28T14:46:58;7.70;99.90
42187;DHT22;27858;51.414;0.018;2023-02-28T14:49:29;7.60;99.90
42187;DHT22;27858;51.414;0.018;2023-02-28T14:54:30;7.60;99.90
42187;DHT22;27858;51.414;0.018;2023-02-28T14:56:56;7.80;99.90
42187;DHT22;27858;51.414;0.018;2023-02-28T14:59:32;7.70;99.90
42187;DHT22;27858;51.414;0.018;2023-02-28T15:02:21;7.80;99.90
42187;DHT22;27858;51.414;0.018;2023-02-28T15:07:44;7.80;99.90
42187;DHT22;27858;51.414;0.018;2023-02-28T15:10:20;7.80;99.90
42187;DHT22;27858;51.414;0.018;2023-02-28T15:12:57;7.80;99.90
42187;DHT22;27858;51.414;0.018;2023-02-28T15:18:31;7.80;99.90
42187;DHT22;27858;51.414;0.018;2023-02-28T15:21:03;7.80;99.90
42187;DHT22;27858;51.414;0.018;2023-02-28T15:23:31;7.80;99.90
42187;DHT22;27858;51.414;0.018;2023-02-28T15:25:59;7.80;99.90
42187;DHT22;27858;51.414;0.018;2023-02-28T15:28:27;7.80;99.90
42187;DHT22;27858;51.414;0.018;2023-02-28T15:30:58;7.80;99.90
42187;DHT22;27858;51.414;0.018;2023-02-28T15:33:34;7.80;99.90
42187;DHT22;27858;51.414;0.018;2023-02-28T15:38:38;7.60;99.90
42187;DHT22;27858;51.414;0.018;2023-02-28T15:41:05;7.50;99.90
42187;DHT22;27858;51.414;0.018;2023-02-28T15:43:47;7.70;99.90
42187;DHT22;27858;51.414;0.018;2023-02-28T15:46:14;7.70;99.90
42187;DHT22;27858;51.414;0.018;2023-02-28T15:48:54;7.70;99.90
42187;DHT22;27858;51.414;0.018;2023-02-28T15:51:33;7.40;99.90
42187;DHT22;27858;51.414;0.018;2023-02-28T15:54:06;7.70;99.90
42187;DHT22;27858;51.414;0.018;2023-02-28T15:56:43;7.70;99.90
42187;DHT22;27858;51.414;0.018;2023-02-28T15:59:21;7.60;99.90
42187;DHT22;27858;51.414;0.018;2023-02-28T16:02:13;7.40;99.90
42187;DHT22;27858;51.414;0.018;2023-02-28T16:07:34;7.50;99.90
42187;DHT22;27858;51.414;0.018;2023-02-28T16:10:01;7.50;99.90
42187;DHT22;27858;51.414;0.018;2023-02-28T16:12:30;7.50;99.90
42187;DHT22;27858;51.414;0.018;2023-02-28T16:15:00;7.40;99.90
42187;DHT22;27858;51.414;0.018;2023-02-28T16:17:34;7.40;99.90
42187;DHT22;27858;51.414;0.018;2023-02-28T16:20:01;7.40;99.90
42187;DHT22;27858;51.414;0.018;2023-02-28T16:22:27;7.40;99.90
42187;DHT22;27858;51.414;0.018;2023-02-28T16:24:54;7.60;99.90
42187;DHT22;27858;51.414;0.018;2023-02-28T16:27:39;7.50;99.90
42187;DHT22;27858;51.414;0.018;2023-02-28T16:30:09;7.60;99.90
42187;DHT22;27858;51.414;0.018;2023-02-28T16:32:40;7.40;99.90
42187;DHT22;27858;51.414;0.018;2023-02-28T16:35:10;7.40;99.90
42187;DHT22;27858;51.414;0.018;2023-02-28T16:37:37;7.40;99.90
42187;DHT22;27858;51.414;0.018;2023-02-28T16:40:04;7.60;99.90
42187;DHT22;27858;51.414;0.018;2023-02-28T16:42:31;7.50;99.90
42187;DHT22;27858;51.414;0.018;2023-02-28T16:44:58;7.70;99.90
42187;DHT22;27858;51.414;0.018;2023-02-28T16:47:25;7.50;99.90
42187;DHT22;27858;51.414;0.018;2023-02-28T16:49:53;7.60;99.90
42187;DHT22;27858;51.414;0.018;2023-02-28T16:52:19;7.50;99.90
42187;DHT22;27858;51.414;0.018;2023-02-28T16:54:46;7.70;99.90
42187;DHT22;27858;51.414;0.018;2023-02-28T16:57:19;7.50;99.90
42187;DHT22;27858;51.414;0.018;2023-02-28T16:59:48;7.50;99.90
42187;DHT22;27858;51.414;0.018;2023-02-28T17:02:18;7.50;99.90
42187;DHT22;27858;51.414;0.018;2023-02-28T17:04:48;7.50;99.90
42187;DHT22;27858;51.414;0.018;2023-02-28T17:07:15;7.50;99.90
42187;DHT22;27858;51.414;0.018;2023-02-28T17:09:44;7.50;99.90
42187;DHT22;27858;51.414;0.018;2023-02-28T17:12:12;7.60;99.90
42187;DHT22;27858;51.414;0.018;2023-02-28T17:14:39;7.50;99.90
42187;DHT22;27858;51.414;0.018;2023-02-28T17:17:06;7.70;99.90
42187;DHT22;27858;51.414;0.018;2023-02-28T17:19:33;7.50;99.90
42187;DHT22;27858;51.414;0.018;2023-02-28T17:22:02;7.50;99.90
42187;DHT22;27858;51.414;0.018;2023-02-28T17:24:29;7.60;99.90
42187;DHT22;27858;51.414;0.018;2023-02-28T17:26:57;7.70;99.90
42187;DHT22;27858;51.414;0.018;2023-02-28T17:29:24;7.60;99.90
42187;DHT22;27858;51.414;0.018;2023-02-28T17:31:51;7.50;99.90
42187;DHT22;27858;51.414;0.018;2023-02-28T17:34:18;7.40;99.90
42187;DHT22;27858;51.414;0.018;2023-02-28T17:36:48;7.40;99.90
42187;DHT22;27858;51.414;0.018;2023-02-28T17:39:16;7.30;99.90
42187;DHT22;27858;51.414;0.018;2023-02-28T17:41:54;7.30;99.90
42187;DHT22;27858;51.414;0.018;2023-02-28T17:44:21;7.40;99.90
42187;DHT22;27858;51.414;0.018;2023-02-28T17:46:51;7.30;99.90
42187;DHT22;27858;51.414;0.018;2023-02-28T17:49:18;7.40;99.90
42187;DHT22;27858;51.414;0.018;2023-02-28T17:51:46;7.30;99.90
42187;DHT22;27858;51.414;0.018;2023-02-28T17:54:13;7.30;99.90
42187;DHT22;27858;51.414;0.018;2023-02-28T17:56:40;7.40;99.90
42187;DHT22;27858;51.414;0.018;2023-02-28T17:59:10;7.30;99.90
42187;DHT22;27858;51.414;0.018;2023-02-28T18:01:38;7.30;99.90
42187;DHT22;27858;51.414;0.018;2023-02-28T18:04:05;7.40;99.90
42187;DHT22;27858;51.414;0.018;2023-02-28T18:06:37;7.30;99.90
42187;DHT22;27858;51.414;0.018;2023-02-28T18:09:18;7.40;99.90
42187;DHT22;27858;51.414;0.018;2023-02-28T18:11:52;7.30;99.90
42187;DHT22;27858;51.414;0.018;2023-02-28T18:14:21;7.40;99.90
42187;DHT22;27858;51.414;0.018;2023-02-28T18:16:50;7.40;99.90
42187;DHT22;27858;51.414;0.018;2023-02-28T18:19:17;7.30;99.90
42187;DHT22;27858;51.414;0.018;2023-02-28T18:21:49;7.30;99.90
42187;DHT22;27858;51.414;0.018;2023-02-28T18:24:17;7.20;99.90
42187;DHT22;27858;51.414;0.018;2023-02-28T18:26:44;7.30;99.90
42187;DHT22;27858;51.414;0.018;2023-02-28T18:29:20;7.50;99.90
42187;DHT22;27858;51.414;0.018;2023-02-28T18:31:47;7.30;99.90
42187;DHT22;27858;51.414;0.018;2023-02-28T18:34:15;7.40;99.90
42187;DHT22;27858;51.414;0.018;2023-02-28T18:36:42;7.30;99.90
42187;DHT22;27858;51.414;0.018;2023-02-28T18:39:09;7.40;99.90
42187;DHT22;27858;51.414;0.018;2023-02-28T18:41:38;7.30;99.90
42187;DHT22;27858;51.414;0.018;2023-02-28T18:44:05;7.30;99.90
42187;DHT22;27858;51.414;0.018;2023-02-28T18:46:45;7.30;99.90
42187;DHT22;27858;51.414;0.018;2023-02-28T18:49:12;7.20;99.90
42187;DHT22;27858;51.414;0.018;2023-02-28T18:51:39;7.30;99.90
42187;DHT22;27858;51.414;0.018;2023-02-28T18:54:11;7.30;99.90
42187;DHT22;27858;51.414;0.018;2023-02-28T18:56:38;7.40;99.90
42187;DHT22;27858;51.414;0.018;2023-02-28T18:59:04;7.40;99.90
42187;DHT22;27858;51.414;0.018;2023-02-28T19:01:32;7.30;99.90
42187;DHT22;27858;51.414;0.018;2023-02-28T19:04:01;7.30;99.90
42187;DHT22;27858;51.414;0.018;2023-02-28T19:06:29;7.30;99.90
42187;DHT22;27858;51.414;0.018;2023-02-28T19:08:59;7.30;99.90
42187;DHT22;27858;51.414;0.018;2023-02-28T19:11:27;7.40;99.90
42187;DHT22;27858;51.414;0.018;2023-02-28T19:13:54;7.40;99.90
42187;DHT22;27858;51.414;0.018;2023-02-28T19:16:21;7.30;99.90
42187;DHT22;27858;51.414;0.018;2023-02-28T19:18:48;7.40;99.90
42187;DHT22;27858;51.414;0.018;2023-02-28T19:21:17;7.30;99.90
42187;DHT22;27858;51.414;0.018;2023-02-28T19:23:44;7.30;99.90
42187;DHT22;27858;51.414;0.018;2023-02-28T19:26:14;7.40;99.90
42187;DHT22;27858;51.414;0.018;2023-02-28T19:28:41;7.30;99.90
42187;DHT22;27858;51.414;0.018;2023-02-28T19:31:13;7.20;99.90
42187;DHT22;27858;51.414;0.018;2023-02-28T19:33:40;7.20;99.90
42187;DHT22;27858;51.414;0.018;2023-02-28T19:36:09;7.40;99.90
42187;DHT22;27858;51.414;0.018;2023-02-28T19:38:38;7.20;99.90
42187;DHT22;27858;51.414;0.018;2023-02-28T19:41:07;7.20;99.90
42187;DHT22;27858;51.414;0.018;2023-02-28T19:43:35;7.10;99.90
42187;DHT22;27858;51.414;0.018;2023-02-28T19:46:03;7.20;99.90
42187;DHT22;27858;51.414;0.018;2023-02-28T19:48:32;7.20;99.90
42187;DHT22;27858;51.414;0.018;2023-02-28T19:51:08;7.30;99.90
42187;DHT22;27858;51.414;0.018;2023-02-28T19:53:39;7.20;99.90
42187;DHT22;27858;51.414;0.018;2023-02-28T19:56:08;7.10;99.90
42187;DHT22;27858;51.414;0.018;2023-02-28T19:58:36;7.20;99.90
42187;DHT22;27858;51.414;0.018;2023-02-28T20:03:35;7.20;99.90
42187;DHT22;27858;51.414;0.018;2023-02-28T20:06:05;7.20;99.90
42187;DHT22;27858;51.414;0.018;2023-02-28T20:08:36;7.10;99.90
42187;DHT22;27858;51.414;0.018;2023-02-28T20:11:07;7.20;99.90
42187;DHT22;27858;51.414;0.018;2023-02-28T20:13:35;7.10;99.90
42187;DHT22;27858;51.414;0.018;2023-02-28T20:16:04;7.20;99.90
42187;DHT22;27858;51.414;0.018;2023-02-28T20:18:32;7.10;99.90
42187;DHT22;27858;51.414;0.018;2023-02-28T20:20:59;7.10;99.90
42187;DHT22;27858;51.414;0.018;2023-02-28T20:23:27;7.00;99.90
42187;DHT22;27858;51.414;0.018;2023-02-28T20:25:58;7.00;99.90
42187;DHT22;27858;51.414;0.018;2023-02-28T20:28:25;6.90;99.90
42187;DHT22;27858;51.414;0.018;2023-02-28T20:30:52;6.90;99.90
42187;DHT22;27858;51.414;0.018;2023-02-28T20:33:19;7.00;99.90
42187;DHT22;27858;51.414;0.018;2023-02-28T20:35:46;7.00;99.90
42187;DHT22;27858;51.414;0.018;2023-02-28T20:38:14;7.00;99.90
42187;DHT22;27858;51.414;0.018;2023-02-28T20:40:41;6.80;99.90
42187;DHT22;27858;51.414;0.018;2023-02-28T20:43:08;7.00;99.90
42187;DHT22;27858;51.414;0.018;2023-02-28T20:45:34;6.70;99.90
42187;DHT22;27858;51.414;0.018;2023-02-28T20:48:01;6.70;99.90
42187;DHT22;27858;51.414;0.018;2023-02-28T20:50:28;6.60;99.90
42187;DHT22;27858;51.414;0.018;2023-02-28T20:52:55;6.50;99.90
42187;DHT22;27858;51.414;0.018;2023-02-28T20:55:22;6.50;99.90
42187;DHT22;27858;51.414;0.018;2023-02-28T20:57:48;6.70;99.90
42187;DHT22;27858;51.414;0.018;2023-02-28T21:00:16;6.40;99.90
42187;DHT22;27858;51.414;0.018;2023-02-28T21:02:46;6.40;99.90
42187;DHT22;27858;51.414;0.018;2023-02-28T21:05:12;6.50;99.90
42187;DHT22;27858;51.414;0.018;2023-02-28T21:07:40;6.50;99.90
42187;DHT22;27858;51.414;0.018;2023-02-28T21:10:10;6.50;99.90
42187;DHT22;27858;51.414;0.018;2023-02-28T21:12:40;6.40;99.90
42187;DHT22;27858;51.414;0.018;2023-02-28T21:15:08;6.30;99.90
42187;DHT22;27858;51.414;0.018;2023-02-28T21:17:36;6.30;99.90
42187;DHT22;27858;51.414;0.018;2023-02-28T21:20:04;6.40;99.90
42187;DHT22;27858;51.414;0.018;2023-02-28T21:22:33;6.20;99.90
42187;DHT22;27858;51.414;0.018;2023-02-28T21:25:00;6.40;99.90
42187;DHT22;27858;51.414;0.018;2023-02-28T21:27:29;6.30;99.90
42187;DHT22;27858;51.414;0.018;2023-02-28T21:29:56;6.30;99.90
42187;DHT22;27858;51.414;0.018;2023-02-28T21:32:25;6.30;99.90
42187;DHT22;27858;51.414;0.018;2023-02-28T21:34:53;6.10;99.90
42187;DHT22;27858;51.414;0.018;2023-02-28T21:37:21;6.30;99.90
42187;DHT22;27858;51.414;0.018;2023-02-28T21:39:48;6.30;99.90
42187;DHT22;27858;51.414;0.018;2023-02-28T21:42:16;6.10;99.90
42187;DHT22;27858;51.414;0.018;2023-02-28T21:44:49;6.10;99.90
42187;DHT22;27858;51.414;0.018;2023-02-28T21:49:59;6.20;99.90
42187;DHT22;27858;51.414;0.018;2023-02-28T21:52:27;6.30;99.90
42187;DHT22;27858;51.414;0.018;2023-02-28T21:54:53;6.10;99.90
42187;DHT22;27858;51.414;0.018;2023-02-28T21:57:20;6.30;99.90